Main page
METAR-TAF:

METAR-TAF

Airports :

Tlemcen, Algeria

Zenata – Messali El Hadj Airport

latitude: 35-01N, longitude: 001-28W, elevation: 247 m

Current weather observation

The report was made 23 minutes ago, at 03:30 UTC
Calm wind
Temperature 14°C
Humidity 88%
Pressure 1020 hPa
Visibility 10 km or more
no clouds below 1500 m and no cumulonimbus

METAR: DAON 200330Z 00000KT CAVOK 14/12 Q1020

Time: 04:53 (03:53 UTC)

Forecast

The report was made 4 hours and 53 minutes ago, at 23:00 UTC
Forecast valid from 20 at 00 UTC to 20 at 24 UTC
Wind 2 kt from variable directions
Visibility 10 km or more
no clouds below 1500 m and no cumulonimbus
Becoming
from 20 at 09 UTC to 20 at 12 UTC
Wind 8 kt from the North
Becoming
from 20 at 17 UTC to 20 at 20 UTC
Wind 2 kt from variable directions

TAF: DAON 192300Z 2000/2024 VRB02KT CAVOK BECMG 2009/2012 36008KT BECMG 2017/2020 VRB02KT

Weather observations and forecasts of more than 4000 airports (METAR and TAF reports).

The available stations are represented by yellow and red dots on the map.

Hover mouse over dot to see the name of the station.

Then click to see weather observations and forecasts.

To change the map : click on the green buttons with a black cross to zoom in, on the green button with a dash to zoom out, or on the green arrows for adjacent maps.


METAR-TAF: